createdAt,value
2022-09-07T00:01:56.779Z,18.06
2022-09-07T00:04:58.418Z,18.04
2022-09-07T00:08:00.872Z,18.02
2022-09-07T00:11:05.619Z,17.99
2022-09-07T00:14:07.793Z,17.97
2022-09-07T00:17:09.390Z,17.94
2022-09-07T00:20:12.899Z,17.91
2022-09-07T00:23:14.522Z,17.89
2022-09-07T00:26:18.772Z,17.86
2022-09-07T00:29:20.491Z,17.84
2022-09-07T00:32:22.100Z,17.81
2022-09-07T00:35:23.785Z,17.77
2022-09-07T00:38:25.449Z,17.73
2022-09-07T00:41:27.092Z,17.72
2022-09-07T00:44:44.010Z,17.69
2022-09-07T00:48:03.899Z,17.65
2022-09-07T00:51:09.749Z,17.62
2022-09-07T00:54:21.570Z,17.61
2022-09-07T00:57:23.420Z,17.59
2022-09-07T01:00:25.690Z,17.58
2022-09-07T01:03:31.113Z,17.58
2022-09-07T01:06:36.218Z,17.55
2022-09-07T01:09:39.645Z,17.53
2022-09-07T01:12:41.284Z,17.51
2022-09-07T01:16:10.082Z,17.50
2022-09-07T01:19:26.648Z,17.49
2022-09-07T01:23:05.753Z,17.47
2022-09-07T01:26:19.624Z,17.44
2022-09-07T01:29:37.709Z,17.42
2022-09-07T01:33:06.391Z,17.40
2022-09-07T01:36:31.835Z,17.39
2022-09-07T01:39:49.749Z,17.37
2022-09-07T01:42:57.309Z,17.37
2022-09-07T01:46:03.245Z,17.37
2022-09-07T01:49:11.918Z,17.35
2022-09-07T01:52:42.425Z,17.34
2022-09-07T01:55:55.270Z,17.33
2022-09-07T01:59:04.443Z,17.31
2022-09-07T02:02:11.720Z,17.30
2022-09-07T02:05:30.209Z,17.29
2022-09-07T02:08:42.100Z,17.28
2022-09-07T02:11:47.482Z,17.29
2022-09-07T02:14:54.332Z,17.28
2022-09-07T02:18:01.199Z,17.32
2022-09-07T02:21:05.950Z,17.31
2022-09-07T02:24:17.302Z,17.30
2022-09-07T02:27:25.432Z,17.31
2022-09-07T02:30:27.188Z,17.31
2022-09-07T02:33:29.668Z,17.30
2022-09-07T02:36:37.171Z,17.30
2022-09-07T02:39:39.030Z,17.29
2022-09-07T02:42:41.978Z,17.28
2022-09-07T02:46:02.566Z,17.30
2022-09-07T02:49:22.934Z,17.31
2022-09-07T02:52:51.920Z,17.31
2022-09-07T02:55:53.489Z,17.33
2022-09-07T02:59:11.990Z,17.33
2022-09-07T03:02:28.989Z,17.36
2022-09-07T03:05:43.006Z,17.34
2022-09-07T03:08:50.731Z,17.33
2022-09-07T03:11:52.783Z,17.34
2022-09-07T03:14:54.465Z,17.33
2022-09-07T03:17:56.146Z,17.36
2022-09-07T03:20:57.880Z,17.35
2022-09-07T03:23:59.532Z,17.35
2022-09-07T03:27:01.590Z,17.34
2022-09-07T03:30:06.319Z,17.34
2022-09-07T03:33:07.964Z,17.35
2022-09-07T03:36:09.780Z,17.35
2022-09-07T03:39:13.954Z,17.36
2022-09-07T03:42:15.602Z,17.35
2022-09-07T03:45:18.099Z,17.34
2022-09-07T03:48:19.778Z,17.34
2022-09-07T03:51:21.383Z,17.37
2022-09-07T03:54:23.095Z,17.38
2022-09-07T03:57:24.780Z,17.38
2022-09-07T04:00:26.424Z,17.38
2022-09-07T04:03:28.047Z,17.37
2022-09-07T04:06:30.066Z,17.38
2022-09-07T04:09:31.878Z,17.37
2022-09-07T04:12:33.530Z,17.37
2022-09-07T04:15:35.449Z,17.38
2022-09-07T04:18:37.478Z,17.35
2022-09-07T04:21:39.232Z,17.36
2022-09-07T04:24:40.862Z,17.36
2022-09-07T04:27:42.576Z,17.34
2022-09-07T04:30:44.794Z,17.33
2022-09-07T04:33:48.341Z,17.31
2022-09-07T04:36:50.402Z,17.32
2022-09-07T04:39:52.128Z,17.33
2022-09-07T04:42:53.782Z,17.34
2022-09-07T04:45:55.685Z,17.32
2022-09-07T04:48:59.688Z,17.33
2022-09-07T04:52:01.440Z,17.32
2022-09-07T04:55:04.071Z,17.36
2022-09-07T04:58:05.699Z,17.36
2022-09-07T05:01:08.130Z,17.37
2022-09-07T05:04:09.852Z,17.36
2022-09-07T05:07:11.518Z,17.36
2022-09-07T05:10:13.261Z,17.38
2022-09-07T05:13:14.916Z,17.40
2022-09-07T05:16:19.462Z,17.40
2022-09-07T05:19:21.122Z,17.39
2022-09-07T05:22:23.179Z,17.40
2022-09-07T05:25:26.552Z,17.41
2022-09-07T05:28:31.235Z,17.38
2022-09-07T05:31:33.396Z,17.35
2022-09-07T05:34:35.410Z,17.31
2022-09-07T05:37:37.036Z,17.26
2022-09-07T05:40:40.881Z,17.21
2022-09-07T05:47:05.524Z,17.15
2022-09-07T05:50:09.004Z,17.17
2022-09-07T05:53:10.639Z,17.17
2022-09-07T05:56:12.851Z,17.17
2022-09-07T05:59:14.638Z,17.19
2022-09-07T06:02:16.653Z,17.18
2022-09-07T06:05:18.397Z,17.17
2022-09-07T06:08:20.043Z,17.23
2022-09-07T06:11:23.625Z,17.27
2022-09-07T06:14:25.297Z,17.29
2022-09-07T06:17:29.161Z,17.35
2022-09-07T06:20:31.165Z,17.39
2022-09-07T06:23:34.092Z,17.42
2022-09-07T06:26:35.689Z,17.41
2022-09-07T06:29:37.326Z,17.43
2022-09-07T06:35:43.607Z,17.47
2022-09-07T06:38:46.911Z,17.51
2022-09-07T06:42:03.874Z,17.54
2022-09-07T06:45:06.878Z,17.58
2022-09-07T06:48:08.493Z,17.66
2022-09-07T06:51:19.143Z,17.74
2022-09-07T06:57:42.387Z,17.92
2022-09-07T07:00:44.332Z,18.00
2022-09-07T07:03:46.560Z,18.08
2022-09-07T07:06:48.278Z,18.12
2022-09-07T07:09:50.086Z,18.19
2022-09-07T07:12:53.164Z,18.22
2022-09-07T07:16:05.377Z,18.29
2022-09-07T07:19:07.160Z,18.32
2022-09-07T07:22:45.549Z,18.39
2022-09-07T07:25:31.041Z,18.45
2022-09-07T07:31:55.185Z,18.54
2022-09-07T07:34:57.057Z,18.58
2022-09-07T07:44:44.494Z,18.79
2022-09-07T07:47:51.211Z,18.84
2022-09-07T07:51:09.889Z,18.89
2022-09-07T07:54:13.800Z,18.93
2022-09-07T07:57:16.931Z,18.96
2022-09-07T08:00:37.158Z,19.01
2022-09-07T08:03:43.721Z,19.07
2022-09-07T08:06:45.361Z,19.09
2022-09-07T08:09:48.096Z,19.17
2022-09-07T08:12:53.325Z,19.24
2022-09-07T08:15:59.413Z,19.34
2022-09-07T08:19:01.963Z,19.41
2022-09-07T08:22:03.998Z,19.48
2022-09-07T08:25:07.176Z,19.56
2022-09-07T08:28:08.770Z,19.62
2022-09-07T08:31:13.768Z,19.70
2022-09-07T08:34:15.515Z,19.75
2022-09-07T08:37:17.128Z,19.81
2022-09-07T08:40:19.502Z,19.88
2022-09-07T08:43:40.093Z,19.97
2022-09-07T08:47:04.512Z,20.02
2022-09-07T08:50:18.539Z,20.09
2022-09-07T08:53:22.043Z,20.15
2022-09-07T08:56:33.669Z,20.21
2022-09-07T08:59:46.645Z,20.28
2022-09-07T09:03:28.694Z,20.28
2022-09-07T09:06:20.229Z,20.34
2022-09-07T09:09:34.229Z,20.39
2022-09-07T09:13:06.655Z,20.43
2022-09-07T09:16:54.787Z,20.47
2022-09-07T09:20:17.288Z,20.55
2022-09-07T09:23:20.522Z,20.59
2022-09-07T09:26:28.274Z,20.65
2022-09-07T09:29:29.851Z,20.70
2022-09-07T09:32:33.311Z,20.78
2022-09-07T09:35:36.279Z,20.89
2022-09-07T09:38:40.365Z,20.97
2022-09-07T09:41:42.496Z,21.03
2022-09-07T09:44:45.473Z,21.11
2022-09-07T09:47:51.075Z,21.18
2022-09-07T09:54:42.867Z,21.38
2022-09-07T10:01:26.075Z,21.47
2022-09-07T10:04:35.120Z,21.51
2022-09-07T10:07:36.755Z,21.54
2022-09-07T10:10:38.383Z,21.64
2022-09-07T10:13:52.594Z,21.71
2022-09-07T10:16:55.743Z,21.79
2022-09-07T10:20:21.629Z,21.83
2022-09-07T10:23:24.244Z,21.88
2022-09-07T10:26:28.849Z,21.96
2022-09-07T10:29:36.054Z,22.08
2022-09-07T10:32:58.402Z,22.18
2022-09-07T10:36:10.896Z,22.25
2022-09-07T10:39:17.560Z,22.30
2022-09-07T10:42:32.902Z,22.41
2022-09-07T10:45:53.006Z,22.43
2022-09-07T10:49:09.633Z,22.53
2022-09-07T10:52:22.591Z,22.63
2022-09-07T10:55:38.071Z,22.69
2022-09-07T10:59:03.485Z,22.80
2022-09-07T11:02:39.288Z,22.85
2022-09-07T11:06:20.305Z,22.90
2022-09-07T11:10:12.785Z,22.91
2022-09-07T11:13:19.538Z,22.97
2022-09-07T11:19:56.645Z,23.09
2022-09-07T11:23:15.645Z,23.18
2022-09-07T11:26:37.335Z,23.25
2022-09-07T11:29:54.864Z,23.27
2022-09-07T11:33:15.208Z,23.32
2022-09-07T11:36:20.920Z,23.37
2022-09-07T11:39:29.438Z,23.43
2022-09-07T11:42:52.936Z,23.48
2022-09-07T11:46:00.251Z,23.54
2022-09-07T11:49:05.296Z,23.57
2022-09-07T11:52:17.149Z,23.61
2022-09-07T11:55:27.498Z,23.67
2022-09-07T11:58:47.308Z,23.72
2022-09-07T12:02:08.063Z,23.79
2022-09-07T12:05:30.876Z,23.90
2022-09-07T12:08:32.521Z,23.93
2022-09-07T12:12:03.212Z,23.98
2022-09-07T12:15:13.943Z,24.00
2022-09-07T12:18:25.330Z,24.08
2022-09-07T12:21:34.744Z,24.19
2022-09-07T12:24:43.553Z,24.25
2022-09-07T12:27:45.544Z,24.27
2022-09-07T12:31:06.042Z,24.36
2022-09-07T12:34:29.457Z,24.40
2022-09-07T12:37:33.941Z,24.43
2022-09-07T12:40:36.133Z,24.50
2022-09-07T12:43:43.713Z,24.52
2022-09-07T12:46:48.384Z,24.58
2022-09-07T12:50:12.014Z,24.61
2022-09-07T12:53:13.770Z,24.67
2022-09-07T12:56:43.908Z,24.67
2022-09-07T13:00:00.718Z,24.68
2022-09-07T13:07:02.409Z,24.68
2022-09-07T13:10:33.479Z,24.70
2022-09-07T13:17:38.885Z,24.77
2022-09-07T13:20:41.620Z,24.83
2022-09-07T13:24:45.772Z,24.89
2022-09-07T13:27:41.427Z,24.89
2022-09-07T13:31:00.262Z,24.92
2022-09-07T13:34:33.766Z,24.96
2022-09-07T13:37:59.068Z,25.02
2022-09-07T13:41:14.665Z,25.11
2022-09-07T13:44:25.920Z,25.19
2022-09-07T13:47:41.625Z,25.25
2022-09-07T13:50:52.369Z,25.27
2022-09-07T13:54:05.321Z,25.33
2022-09-07T13:57:22.114Z,25.35
2022-09-07T14:00:24.264Z,25.39
2022-09-07T14:03:28.147Z,25.43
2022-09-07T14:06:32.909Z,25.48
2022-09-07T14:09:34.987Z,25.52
2022-09-07T14:12:52.473Z,25.59
2022-09-07T14:15:54.110Z,25.75
2022-09-07T14:18:55.773Z,25.89
2022-09-07T14:22:12.540Z,25.98
2022-09-07T14:25:22.189Z,26.02
2022-09-07T14:28:32.372Z,26.16
2022-09-07T14:31:34.808Z,26.25
2022-09-07T14:34:38.180Z,26.47
2022-09-07T14:37:40.309Z,26.63
2022-09-07T14:40:42.187Z,26.77
2022-09-07T14:43:58.346Z,26.94
2022-09-07T14:47:05.996Z,27.04
2022-09-07T14:50:18.342Z,27.14
2022-09-07T14:53:36.186Z,27.34
2022-09-07T14:56:40.987Z,27.61
2022-09-07T14:59:45.104Z,27.90
2022-09-07T15:02:47.398Z,28.20
2022-09-07T15:05:49.170Z,28.29
2022-09-07T15:08:50.808Z,28.32
2022-09-07T15:12:03.301Z,28.29
2022-09-07T15:15:33.670Z,28.22
2022-09-07T15:18:55.639Z,28.09
2022-09-07T15:21:57.555Z,28.03
2022-09-07T15:24:59.191Z,28.06
2022-09-07T15:28:01.010Z,28.07
2022-09-07T15:34:24.643Z,27.91
2022-09-07T15:41:20.901Z,27.70
2022-09-07T15:44:21.524Z,27.59
2022-09-07T15:50:48.830Z,27.58
2022-09-07T15:54:12.647Z,27.62
2022-09-07T16:00:37.697Z,27.61
2022-09-07T16:03:39.734Z,27.53
2022-09-07T16:06:42.836Z,27.42
2022-09-07T16:09:44.400Z,27.30
2022-09-07T16:13:08.715Z,27.19
2022-09-07T16:16:08.310Z,27.09
2022-09-07T16:19:13.825Z,26.92
2022-09-07T16:23:13.243Z,26.75
2022-09-07T16:25:38.254Z,26.53
2022-09-07T16:28:42.232Z,26.33
2022-09-07T16:35:05.908Z,25.92
2022-09-07T16:41:31.750Z,25.51
2022-09-07T16:44:35.119Z,25.33
2022-09-07T16:47:39.902Z,25.15
2022-09-07T16:50:51.120Z,24.98
2022-09-07T16:53:54.828Z,24.83
2022-09-07T16:56:56.531Z,24.70
2022-09-07T16:59:58.389Z,24.56
2022-09-07T17:03:00.022Z,24.38
2022-09-07T17:06:03.502Z,24.22
2022-09-07T17:09:05.462Z,24.05
2022-09-07T17:12:08.017Z,23.94
2022-09-07T17:15:10.206Z,23.79
2022-09-07T17:18:11.791Z,23.64
2022-09-07T17:21:14.618Z,23.54
2022-09-07T17:24:16.489Z,23.40
2022-09-07T17:27:18.082Z,23.29
2022-09-07T17:30:20.829Z,23.16
2022-09-07T17:33:22.548Z,23.04
2022-09-07T17:36:25.922Z,23.00
2022-09-07T17:39:30.042Z,22.92
2022-09-07T17:45:53.387Z,22.72
2022-09-07T17:48:59.083Z,22.61
2022-09-07T17:52:01.633Z,22.50
2022-09-07T17:55:03.928Z,22.38
2022-09-07T17:58:07.857Z,22.28
2022-09-07T18:01:15.548Z,22.15
2022-09-07T18:04:17.562Z,22.03
2022-09-07T18:07:19.172Z,21.93
2022-09-07T18:10:20.772Z,21.82
2022-09-07T18:13:33.552Z,21.70
2022-09-07T18:16:37.519Z,21.59
2022-09-07T18:19:39.158Z,21.49
2022-09-07T18:22:40.732Z,21.40
2022-09-07T18:25:42.393Z,21.30
2022-09-07T18:32:09.466Z,21.08
2022-09-07T18:35:11.390Z,20.98
2022-09-07T18:38:13.646Z,20.91
2022-09-07T18:41:16.252Z,20.82
2022-09-07T18:47:40.094Z,20.67
2022-09-07T18:50:41.665Z,20.59
2022-09-07T18:53:43.565Z,20.53
2022-09-07T18:56:45.167Z,20.44
2022-09-07T18:59:46.863Z,20.38
2022-09-07T19:02:51.505Z,20.33
2022-09-07T19:06:05.089Z,20.24
2022-09-07T19:09:06.769Z,20.18
2022-09-07T19:12:10.026Z,20.12
2022-09-07T19:15:11.675Z,20.08
2022-09-07T19:18:13.625Z,20.04
2022-09-07T19:21:19.461Z,20.01
2022-09-07T19:24:21.122Z,19.96
2022-09-07T19:27:22.713Z,19.93
2022-09-07T19:30:26.680Z,19.91
2022-09-07T19:33:28.357Z,19.88
2022-09-07T19:36:32.659Z,19.86
2022-09-07T19:39:34.817Z,19.82
2022-09-07T19:42:36.509Z,19.81
2022-09-07T19:45:39.963Z,19.79
2022-09-07T19:48:41.802Z,19.75
2022-09-07T19:51:43.558Z,19.73
2022-09-07T19:54:45.683Z,19.73
2022-09-07T19:57:47.738Z,19.72
2022-09-07T20:00:49.641Z,19.70
2022-09-07T20:04:00.926Z,19.67
2022-09-07T20:07:03.020Z,19.64
2022-09-07T20:10:05.312Z,19.63
2022-09-07T20:13:06.917Z,19.62
2022-09-07T20:16:12.382Z,19.60
2022-09-07T20:19:16.842Z,19.61
2022-09-07T20:22:19.926Z,19.59
2022-09-07T20:25:23.955Z,19.58
2022-09-07T20:28:26.239Z,19.58
2022-09-07T20:31:28.057Z,19.56
2022-09-07T20:34:29.699Z,19.54
2022-09-07T20:37:31.278Z,19.54
2022-09-07T20:40:33.512Z,19.52
2022-09-07T20:43:35.203Z,19.49
2022-09-07T20:46:37.016Z,19.52
2022-09-07T20:49:39.632Z,19.51
2022-09-07T20:52:41.192Z,19.50
2022-09-07T20:55:43.006Z,19.50
2022-09-07T20:58:46.045Z,19.50
2022-09-07T21:01:47.800Z,19.49
2022-09-07T21:04:49.417Z,19.52
2022-09-07T21:07:51.018Z,19.49
2022-09-07T21:10:52.789Z,19.49
2022-09-07T21:14:08.393Z,19.51
2022-09-07T21:17:10.241Z,19.49
2022-09-07T21:20:11.952Z,19.48
2022-09-07T21:23:13.664Z,19.45
2022-09-07T21:26:20.407Z,19.46
2022-09-07T21:29:24.363Z,19.47
2022-09-07T21:32:26.282Z,19.47
2022-09-07T21:35:30.671Z,19.46
2022-09-07T21:38:33.876Z,19.47
2022-09-07T21:41:38.634Z,19.51
2022-09-07T21:44:40.361Z,19.54
2022-09-07T21:47:42.216Z,19.56
2022-09-07T21:50:45.068Z,19.56
2022-09-07T21:53:52.140Z,19.48
2022-09-07T21:56:53.754Z,19.49
2022-09-07T21:59:55.462Z,19.44
2022-09-07T22:02:57.120Z,19.34
2022-09-07T22:06:02.166Z,19.24
2022-09-07T22:09:05.069Z,19.01
2022-09-07T22:12:06.930Z,18.75
2022-09-07T22:15:08.879Z,18.63
2022-09-07T22:18:13.446Z,18.45
2022-09-07T22:21:18.827Z,18.19
2022-09-07T22:24:20.455Z,18.04
2022-09-07T22:27:22.157Z,17.90
2022-09-07T22:30:24.281Z,17.81
2022-09-07T22:33:26.986Z,17.72
2022-09-07T22:36:32.387Z,17.69
2022-09-07T22:39:34.081Z,17.63
2022-09-07T22:42:35.756Z,17.55
2022-09-07T22:45:37.359Z,17.46
2022-09-07T22:48:40.544Z,17.35
2022-09-07T22:51:42.951Z,17.27
2022-09-07T22:54:45.763Z,17.20
2022-09-07T22:57:47.438Z,17.11
2022-09-07T23:00:50.616Z,17.08
2022-09-07T23:03:53.500Z,17.05
2022-09-07T23:06:55.219Z,16.99
2022-09-07T23:09:56.822Z,16.92
2022-09-07T23:12:58.432Z,16.88
2022-09-07T23:16:04.658Z,16.81
2022-09-07T23:19:06.960Z,16.74
2022-09-07T23:22:08.599Z,16.68
2022-09-07T23:25:10.256Z,16.62
2022-09-07T23:28:12.432Z,16.59
2022-09-07T23:31:14.198Z,16.53
2022-09-07T23:34:16.371Z,16.48
2022-09-07T23:37:17.994Z,16.40
2022-09-07T23:40:20.362Z,16.39
2022-09-07T23:43:22.768Z,16.36
2022-09-07T23:46:25.152Z,16.37
2022-09-07T23:49:26.784Z,16.30
2022-09-07T23:52:28.441Z,16.28
2022-09-07T23:55:30.077Z,16.24
2022-09-07T23:58:31.820Z,16.25
